sensor_id;sensor_type;location;lat;lon;timestamp;P1;durP1;ratioP1;P2;durP2;ratioP2
23370;SDS011;11858;51.056;3.712;2022-12-31T00:01:42;8.00;;;6.63;;
23370;SDS011;11858;51.056;3.712;2022-12-31T00:04:08;6.85;;;6.25;;
23370;SDS011;11858;51.056;3.712;2022-12-31T00:06:34;7.32;;;6.70;;
23370;SDS011;11858;51.056;3.712;2022-12-31T00:09:01;6.90;;;6.40;;
23370;SDS011;11858;51.056;3.712;2022-12-31T00:11:29;7.20;;;6.70;;
23370;SDS011;11858;51.056;3.712;2022-12-31T00:13:56;7.00;;;6.40;;
23370;SDS011;11858;51.056;3.712;2022-12-31T00:16:25;6.25;;;5.85;;
23370;SDS011;11858;51.056;3.712;2022-12-31T00:18:54;6.50;;;6.00;;
23370;SDS011;11858;51.056;3.712;2022-12-31T00:21:25;6.13;;;5.72;;
23370;SDS011;11858;51.056;3.712;2022-12-31T00:23:53;6.07;;;5.47;;
23370;SDS011;11858;51.056;3.712;2022-12-31T00:26:20;7.10;;;5.28;;
23370;SDS011;11858;51.056;3.712;2022-12-31T00:28:49;5.72;;;5.10;;
23370;SDS011;11858;51.056;3.712;2022-12-31T00:31:26;5.43;;;4.85;;
23370;SDS011;11858;51.056;3.712;2022-12-31T00:33:59;5.15;;;4.75;;
23370;SDS011;11858;51.056;3.712;2022-12-31T00:36:27;5.32;;;4.93;;
23370;SDS011;11858;51.056;3.712;2022-12-31T00:38:59;4.80;;;4.40;;
23370;SDS011;11858;51.056;3.712;2022-12-31T00:41:25;5.20;;;4.80;;
23370;SDS011;11858;51.056;3.712;2022-12-31T00:43:52;5.75;;;5.30;;
23370;SDS011;11858;51.056;3.712;2022-12-31T00:46:18;10.02;;;5.07;;
23370;SDS011;11858;51.056;3.712;2022-12-31T00:48:44;5.43;;;4.55;;
23370;SDS011;11858;51.056;3.712;2022-12-31T00:51:11;5.40;;;5.00;;
23370;SDS011;11858;51.056;3.712;2022-12-31T00:53:38;5.38;;;4.90;;
23370;SDS011;11858;51.056;3.712;2022-12-31T00:56:06;8.05;;;4.90;;
23370;SDS011;11858;51.056;3.712;2022-12-31T00:58:34;7.90;;;5.00;;
23370;SDS011;11858;51.056;3.712;2022-12-31T01:01:22;5.72;;;5.00;;
23370;SDS011;11858;51.056;3.712;2022-12-31T01:03:58;6.50;;;6.00;;
23370;SDS011;11858;51.056;3.712;2022-12-31T01:06:28;6.20;;;5.60;;
23370;SDS011;11858;51.056;3.712;2022-12-31T01:08:54;9.55;;;5.97;;
23370;SDS011;11858;51.056;3.712;2022-12-31T01:11:20;6.45;;;5.85;;
23370;SDS011;11858;51.056;3.712;2022-12-31T01:14:00;6.95;;;5.50;;
23370;SDS011;11858;51.056;3.712;2022-12-31T01:16:32;6.82;;;6.20;;
23370;SDS011;11858;51.056;3.712;2022-12-31T01:19:02;7.28;;;6.20;;
23370;SDS011;11858;51.056;3.712;2022-12-31T01:21:30;10.88;;;6.32;;
23370;SDS011;11858;51.056;3.712;2022-12-31T01:23:57;6.65;;;5.70;;
23370;SDS011;11858;51.056;3.712;2022-12-31T01:26:23;6.88;;;6.22;;
23370;SDS011;11858;51.056;3.712;2022-12-31T01:28:49;7.70;;;6.15;;
23370;SDS011;11858;51.056;3.712;2022-12-31T01:31:15;7.03;;;6.43;;
23370;SDS011;11858;51.056;3.712;2022-12-31T01:33:42;10.02;;;6.40;;
23370;SDS011;11858;51.056;3.712;2022-12-31T01:36:12;7.25;;;6.55;;
23370;SDS011;11858;51.056;3.712;2022-12-31T01:38:40;7.05;;;5.78;;
23370;SDS011;11858;51.056;3.712;2022-12-31T01:41:08;9.88;;;6.85;;
23370;SDS011;11858;51.056;3.712;2022-12-31T01:43:50;8.75;;;6.90;;
23370;SDS011;11858;51.056;3.712;2022-12-31T01:49:03;8.45;;;7.65;;
23370;SDS011;11858;51.056;3.712;2022-12-31T01:51:45;8.95;;;7.68;;
23370;SDS011;11858;51.056;3.712;2022-12-31T01:54:16;10.45;;;8.50;;
23370;SDS011;11858;51.056;3.712;2022-12-31T01:56:45;9.68;;;7.70;;
23370;SDS011;11858;51.056;3.712;2022-12-31T01:59:12;9.60;;;8.80;;
23370;SDS011;11858;51.056;3.712;2022-12-31T02:01:41;9.55;;;8.63;;
23370;SDS011;11858;51.056;3.712;2022-12-31T02:04:08;9.10;;;8.40;;
23370;SDS011;11858;51.056;3.712;2022-12-31T02:06:39;9.98;;;8.40;;
23370;SDS011;11858;51.056;3.712;2022-12-31T02:09:12;8.40;;;7.70;;
23370;SDS011;11858;51.056;3.712;2022-12-31T02:11:38;8.27;;;7.57;;
23370;SDS011;11858;51.056;3.712;2022-12-31T02:14:09;7.95;;;7.22;;
23370;SDS011;11858;51.056;3.712;2022-12-31T02:25:30;6.53;;;6.03;;
23370;SDS011;11858;51.056;3.712;2022-12-31T02:36:46;6.63;;;6.15;;
23370;SDS011;11858;51.056;3.712;2022-12-31T02:39:15;6.60;;;6.18;;
23370;SDS011;11858;51.056;3.712;2022-12-31T02:41:41;6.50;;;6.00;;
23370;SDS011;11858;51.056;3.712;2022-12-31T02:52:37;6.32;;;5.80;;
23370;SDS011;11858;51.056;3.712;2022-12-31T02:56:06;6.35;;;5.95;;
23370;SDS011;11858;51.056;3.712;2022-12-31T03:01:38;6.18;;;5.68;;
23370;SDS011;11858;51.056;3.712;2022-12-31T03:04:27;5.82;;;5.25;;
23370;SDS011;11858;51.056;3.712;2022-12-31T03:07:00;5.40;;;4.90;;
23370;SDS011;11858;51.056;3.712;2022-12-31T03:09:28;5.22;;;4.80;;
23370;SDS011;11858;51.056;3.712;2022-12-31T03:11:53;6.63;;;4.75;;
23370;SDS011;11858;51.056;3.712;2022-12-31T03:14:38;6.57;;;4.07;;
23370;SDS011;11858;51.056;3.712;2022-12-31T03:17:04;8.52;;;4.60;;
23370;SDS011;11858;51.056;3.712;2022-12-31T03:19:30;7.75;;;4.40;;
23370;SDS011;11858;51.056;3.712;2022-12-31T03:22:14;7.90;;;4.47;;
23370;SDS011;11858;51.056;3.712;2022-12-31T03:24:52;9.98;;;4.18;;
23370;SDS011;11858;51.056;3.712;2022-12-31T03:27:41;11.90;;;5.05;;
23370;SDS011;11858;51.056;3.712;2022-12-31T03:30:08;8.50;;;4.97;;
23370;SDS011;11858;51.056;3.712;2022-12-31T03:32:34;12.30;;;4.70;;
23370;SDS011;11858;51.056;3.712;2022-12-31T03:35:00;7.90;;;5.03;;
23370;SDS011;11858;51.056;3.712;2022-12-31T03:37:26;15.13;;;5.00;;
23370;SDS011;11858;51.056;3.712;2022-12-31T03:39:51;10.02;;;4.53;;
23370;SDS011;11858;51.056;3.712;2022-12-31T03:42:17;11.73;;;5.10;;
23370;SDS011;11858;51.056;3.712;2022-12-31T03:44:43;9.55;;;3.67;;
23370;SDS011;11858;51.056;3.712;2022-12-31T03:47:08;13.55;;;4.07;;
23370;SDS011;11858;51.056;3.712;2022-12-31T03:49:34;9.80;;;3.78;;
23370;SDS011;11858;51.056;3.712;2022-12-31T03:52:00;11.18;;;3.88;;
23370;SDS011;11858;51.056;3.712;2022-12-31T03:54:27;14.45;;;3.90;;
23370;SDS011;11858;51.056;3.712;2022-12-31T03:56:53;11.88;;;4.32;;
23370;SDS011;11858;51.056;3.712;2022-12-31T03:59:19;11.68;;;4.20;;
23370;SDS011;11858;51.056;3.712;2022-12-31T04:01:44;8.73;;;4.75;;
23370;SDS011;11858;51.056;3.712;2022-12-31T04:04:10;13.77;;;5.28;;
23370;SDS011;11858;51.056;3.712;2022-12-31T04:06:36;7.53;;;4.50;;
23370;SDS011;11858;51.056;3.712;2022-12-31T04:09:02;9.43;;;4.43;;
23370;SDS011;11858;51.056;3.712;2022-12-31T04:11:27;11.85;;;4.43;;
23370;SDS011;11858;51.056;3.712;2022-12-31T04:13:53;9.75;;;4.80;;
23370;SDS011;11858;51.056;3.712;2022-12-31T04:16:19;10.05;;;9.55;;
23370;SDS011;11858;51.056;3.712;2022-12-31T04:18:44;8.20;;;7.80;;
23370;SDS011;11858;51.056;3.712;2022-12-31T04:21:10;14.10;;;7.30;;
23370;SDS011;11858;51.056;3.712;2022-12-31T04:23:36;11.73;;;7.72;;
23370;SDS011;11858;51.056;3.712;2022-12-31T04:26:01;11.82;;;7.20;;
23370;SDS011;11858;51.056;3.712;2022-12-31T04:28:27;17.08;;;7.65;;
23370;SDS011;11858;51.056;3.712;2022-12-31T04:30:53;12.32;;;6.90;;
23370;SDS011;11858;51.056;3.712;2022-12-31T04:33:19;10.32;;;6.40;;
23370;SDS011;11858;51.056;3.712;2022-12-31T04:35:44;12.52;;;6.70;;
23370;SDS011;11858;51.056;3.712;2022-12-31T04:38:10;10.70;;;6.50;;
23370;SDS011;11858;51.056;3.712;2022-12-31T04:40:36;10.20;;;6.75;;
23370;SDS011;11858;51.056;3.712;2022-12-31T04:43:21;7.20;;;6.50;;
23370;SDS011;11858;51.056;3.712;2022-12-31T04:45:47;10.85;;;6.82;;
23370;SDS011;11858;51.056;3.712;2022-12-31T04:48:13;12.02;;;6.82;;
23370;SDS011;11858;51.056;3.712;2022-12-31T04:50:38;8.73;;;6.35;;
23370;SDS011;11858;51.056;3.712;2022-12-31T04:53:04;10.48;;;6.15;;
23370;SDS011;11858;51.056;3.712;2022-12-31T04:55:30;8.18;;;6.40;;
23370;SDS011;11858;51.056;3.712;2022-12-31T04:57:56;9.27;;;7.00;;
23370;SDS011;11858;51.056;3.712;2022-12-31T05:00:21;7.95;;;6.88;;
23370;SDS011;11858;51.056;3.712;2022-12-31T05:02:48;9.10;;;6.90;;
23370;SDS011;11858;51.056;3.712;2022-12-31T05:05:14;8.02;;;7.20;;
23370;SDS011;11858;51.056;3.712;2022-12-31T05:07:40;7.90;;;7.20;;
23370;SDS011;11858;51.056;3.712;2022-12-31T05:10:06;7.90;;;6.70;;
23370;SDS011;11858;51.056;3.712;2022-12-31T05:12:32;8.60;;;7.80;;
23370;SDS011;11858;51.056;3.712;2022-12-31T05:14:57;9.50;;;8.70;;
23370;SDS011;11858;51.056;3.712;2022-12-31T05:17:23;10.55;;;8.70;;
23370;SDS011;11858;51.056;3.712;2022-12-31T05:19:49;10.18;;;9.48;;
23370;SDS011;11858;51.056;3.712;2022-12-31T05:22:14;9.98;;;9.18;;
23370;SDS011;11858;51.056;3.712;2022-12-31T05:24:52;10.13;;;9.43;;
23370;SDS011;11858;51.056;3.712;2022-12-31T05:27:18;11.20;;;10.40;;
23370;SDS011;11858;51.056;3.712;2022-12-31T05:29:44;12.20;;;11.00;;
23370;SDS011;11858;51.056;3.712;2022-12-31T05:32:10;11.65;;;10.75;;
23370;SDS011;11858;51.056;3.712;2022-12-31T05:34:36;11.07;;;10.18;;
23370;SDS011;11858;51.056;3.712;2022-12-31T05:37:02;10.40;;;9.48;;
23370;SDS011;11858;51.056;3.712;2022-12-31T05:39:28;9.02;;;8.43;;
23370;SDS011;11858;51.056;3.712;2022-12-31T05:41:53;9.18;;;8.20;;
23370;SDS011;11858;51.056;3.712;2022-12-31T05:44:19;8.23;;;7.40;;
23370;SDS011;11858;51.056;3.712;2022-12-31T05:46:45;9.93;;;7.63;;
23370;SDS011;11858;51.056;3.712;2022-12-31T05:49:13;8.50;;;7.80;;
23370;SDS011;11858;51.056;3.712;2022-12-31T05:51:39;8.65;;;7.95;;
23370;SDS011;11858;51.056;3.712;2022-12-31T05:54:05;8.50;;;7.85;;
23370;SDS011;11858;51.056;3.712;2022-12-31T05:56:31;7.88;;;7.32;;
23370;SDS011;11858;51.056;3.712;2022-12-31T05:58:57;8.23;;;7.45;;
23370;SDS011;11858;51.056;3.712;2022-12-31T06:01:22;10.00;;;7.05;;
23370;SDS011;11858;51.056;3.712;2022-12-31T06:03:48;8.25;;;5.60;;
23370;SDS011;11858;51.056;3.712;2022-12-31T06:06:14;6.75;;;5.32;;
23370;SDS011;11858;51.056;3.712;2022-12-31T06:08:39;5.10;;;4.50;;
23370;SDS011;11858;51.056;3.712;2022-12-31T06:11:05;5.18;;;4.72;;
23370;SDS011;11858;51.056;3.712;2022-12-31T06:13:31;6.22;;;4.80;;
23370;SDS011;11858;51.056;3.712;2022-12-31T06:15:57;6.55;;;5.20;;
23370;SDS011;11858;51.056;3.712;2022-12-31T06:18:28;5.63;;;5.20;;
23370;SDS011;11858;51.056;3.712;2022-12-31T06:20:56;7.07;;;5.25;;
23370;SDS011;11858;51.056;3.712;2022-12-31T06:23:22;6.57;;;5.47;;
23370;SDS011;11858;51.056;3.712;2022-12-31T06:25:48;6.15;;;5.50;;
23370;SDS011;11858;51.056;3.712;2022-12-31T06:28:14;6.47;;;5.60;;
23370;SDS011;11858;51.056;3.712;2022-12-31T06:30:40;6.22;;;5.63;;
23370;SDS011;11858;51.056;3.712;2022-12-31T06:33:06;8.15;;;5.82;;
23370;SDS011;11858;51.056;3.712;2022-12-31T06:35:31;6.88;;;5.97;;
23370;SDS011;11858;51.056;3.712;2022-12-31T06:37:57;7.00;;;5.70;;
23370;SDS011;11858;51.056;3.712;2022-12-31T06:40:23;6.18;;;5.57;;
23370;SDS011;11858;51.056;3.712;2022-12-31T06:42:49;5.75;;;5.25;;
23370;SDS011;11858;51.056;3.712;2022-12-31T06:45:14;8.27;;;5.43;;
23370;SDS011;11858;51.056;3.712;2022-12-31T06:47:40;6.18;;;4.20;;
23370;SDS011;11858;51.056;3.712;2022-12-31T06:50:06;9.55;;;3.80;;
23370;SDS011;11858;51.056;3.712;2022-12-31T06:52:32;8.80;;;3.20;;
23370;SDS011;11858;51.056;3.712;2022-12-31T06:54:58;7.50;;;3.58;;
23370;SDS011;11858;51.056;3.712;2022-12-31T06:57:25;4.75;;;3.70;;
23370;SDS011;11858;51.056;3.712;2022-12-31T06:59:51;9.05;;;3.95;;
23370;SDS011;11858;51.056;3.712;2022-12-31T07:04:50;7.25;;;3.65;;
23370;SDS011;11858;51.056;3.712;2022-12-31T07:08:05;5.45;;;3.63;;
23370;SDS011;11858;51.056;3.712;2022-12-31T07:13:27;6.13;;;2.17;;
23370;SDS011;11858;51.056;3.712;2022-12-31T07:19:02;4.97;;;2.50;;
23370;SDS011;11858;51.056;3.712;2022-12-31T07:21:41;5.28;;;2.30;;
23370;SDS011;11858;51.056;3.712;2022-12-31T07:24:08;4.97;;;3.00;;
23370;SDS011;11858;51.056;3.712;2022-12-31T07:29:12;3.97;;;2.75;;
23370;SDS011;11858;51.056;3.712;2022-12-31T07:31:56;3.88;;;2.42;;
23370;SDS011;11858;51.056;3.712;2022-12-31T07:34:43;5.82;;;3.00;;
23370;SDS011;11858;51.056;3.712;2022-12-31T07:37:24;6.72;;;3.53;;
23370;SDS011;11858;51.056;3.712;2022-12-31T07:40:17;7.28;;;3.53;;
23370;SDS011;11858;51.056;3.712;2022-12-31T07:46:12;6.72;;;3.85;;
23370;SDS011;11858;51.056;3.712;2022-12-31T07:48:47;9.60;;;4.10;;
23370;SDS011;11858;51.056;3.712;2022-12-31T07:51:12;6.95;;;3.97;;
23370;SDS011;11858;51.056;3.712;2022-12-31T07:53:38;6.32;;;4.00;;
23370;SDS011;11858;51.056;3.712;2022-12-31T07:56:05;6.13;;;3.72;;
23370;SDS011;11858;51.056;3.712;2022-12-31T08:01:06;5.45;;;4.25;;
23370;SDS011;11858;51.056;3.712;2022-12-31T08:03:41;5.93;;;4.00;;
23370;SDS011;11858;51.056;3.712;2022-12-31T08:06:18;5.43;;;3.70;;
23370;SDS011;11858;51.056;3.712;2022-12-31T08:08:57;5.35;;;3.67;;
23370;SDS011;11858;51.056;3.712;2022-12-31T08:14:23;5.97;;;3.15;;
23370;SDS011;11858;51.056;3.712;2022-12-31T08:16:53;6.20;;;3.13;;
23370;SDS011;11858;51.056;3.712;2022-12-31T08:19:29;6.55;;;3.40;;
23370;SDS011;11858;51.056;3.712;2022-12-31T08:30:13;7.45;;;3.67;;
23370;SDS011;11858;51.056;3.712;2022-12-31T08:40:53;7.65;;;3.65;;
23370;SDS011;11858;51.056;3.712;2022-12-31T08:43:43;6.43;;;3.50;;
23370;SDS011;11858;51.056;3.712;2022-12-31T08:46:25;6.55;;;3.50;;
23370;SDS011;11858;51.056;3.712;2022-12-31T08:48:58;7.05;;;3.80;;
23370;SDS011;11858;51.056;3.712;2022-12-31T08:51:25;9.98;;;4.38;;
23370;SDS011;11858;51.056;3.712;2022-12-31T08:53:57;8.98;;;4.80;;
23370;SDS011;11858;51.056;3.712;2022-12-31T08:56:33;9.55;;;6.00;;
23370;SDS011;11858;51.056;3.712;2022-12-31T09:07:52;9.75;;;6.95;;
23370;SDS011;11858;51.056;3.712;2022-12-31T09:10:38;9.85;;;7.55;;
23370;SDS011;11858;51.056;3.712;2022-12-31T09:15:51;10.52;;;8.18;;
23370;SDS011;11858;51.056;3.712;2022-12-31T09:18:25;11.35;;;10.20;;
23370;SDS011;11858;51.056;3.712;2022-12-31T09:20:54;13.05;;;10.27;;
23370;SDS011;11858;51.056;3.712;2022-12-31T09:23:23;15.35;;;11.00;;
23370;SDS011;11858;51.056;3.712;2022-12-31T09:25:59;12.25;;;11.07;;
23370;SDS011;11858;51.056;3.712;2022-12-31T09:28:45;14.35;;;12.27;;
23370;SDS011;11858;51.056;3.712;2022-12-31T09:34:23;13.82;;;12.23;;
23370;SDS011;11858;51.056;3.712;2022-12-31T09:37:07;15.18;;;13.68;;
23370;SDS011;11858;51.056;3.712;2022-12-31T09:39:45;15.18;;;13.65;;
23370;SDS011;11858;51.056;3.712;2022-12-31T09:48:01;15.52;;;13.90;;
23370;SDS011;11858;51.056;3.712;2022-12-31T09:50:25;13.95;;;12.13;;
23370;SDS011;11858;51.056;3.712;2022-12-31T10:12:21;14.35;;;12.93;;
23370;SDS011;11858;51.056;3.712;2022-12-31T10:20:39;15.27;;;13.98;;
23370;SDS011;11858;51.056;3.712;2022-12-31T10:37:40;16.27;;;14.40;;
23370;SDS011;11858;51.056;3.712;2022-12-31T10:40:17;16.30;;;13.65;;
23370;SDS011;11858;51.056;3.712;2022-12-31T10:51:47;12.77;;;9.98;;
23370;SDS011;11858;51.056;3.712;2022-12-31T11:00:33;15.32;;;11.10;;
23370;SDS011;11858;51.056;3.712;2022-12-31T11:06:15;13.98;;;10.18;;
23370;SDS011;11858;51.056;3.712;2022-12-31T11:09:23;16.27;;;9.77;;
23370;SDS011;11858;51.056;3.712;2022-12-31T11:31:33;13.82;;;9.20;;
23370;SDS011;11858;51.056;3.712;2022-12-31T11:48:24;18.05;;;8.07;;
23370;SDS011;11858;51.056;3.712;2022-12-31T11:51:08;20.45;;;8.93;;
23370;SDS011;11858;51.056;3.712;2022-12-31T11:53:48;11.07;;;8.30;;
23370;SDS011;11858;51.056;3.712;2022-12-31T11:56:26;13.50;;;8.88;;
23370;SDS011;11858;51.056;3.712;2022-12-31T11:58:58;18.23;;;10.38;;
23370;SDS011;11858;51.056;3.712;2022-12-31T12:01:29;16.25;;;9.52;;
23370;SDS011;11858;51.056;3.712;2022-12-31T12:04:00;17.25;;;9.63;;
23370;SDS011;11858;51.056;3.712;2022-12-31T12:06:27;11.63;;;9.23;;
23370;SDS011;11858;51.056;3.712;2022-12-31T12:08:57;13.25;;;9.55;;
23370;SDS011;11858;51.056;3.712;2022-12-31T12:13:55;14.93;;;10.30;;
23370;SDS011;11858;51.056;3.712;2022-12-31T12:16:21;12.90;;;11.68;;
23370;SDS011;11858;51.056;3.712;2022-12-31T12:18:49;13.55;;;12.25;;
23370;SDS011;11858;51.056;3.712;2022-12-31T12:21:24;14.43;;;13.05;;
23370;SDS011;11858;51.056;3.712;2022-12-31T12:26:32;17.15;;;15.43;;
23370;SDS011;11858;51.056;3.712;2022-12-31T12:29:10;18.02;;;16.13;;
23370;SDS011;11858;51.056;3.712;2022-12-31T12:31:40;19.15;;;17.23;;
23370;SDS011;11858;51.056;3.712;2022-12-31T12:36:59;20.77;;;18.90;;
23370;SDS011;11858;51.056;3.712;2022-12-31T12:39:26;22.27;;;19.98;;
23370;SDS011;11858;51.056;3.712;2022-12-31T12:42:09;22.67;;;20.48;;
23370;SDS011;11858;51.056;3.712;2022-12-31T12:44:38;21.33;;;19.58;;
23370;SDS011;11858;51.056;3.712;2022-12-31T12:47:07;24.58;;;20.50;;
23370;SDS011;11858;51.056;3.712;2022-12-31T12:49:40;22.15;;;19.95;;
23370;SDS011;11858;51.056;3.712;2022-12-31T13:03:17;25.83;;;20.77;;
23370;SDS011;11858;51.056;3.712;2022-12-31T13:05:57;22.80;;;20.33;;
23370;SDS011;11858;51.056;3.712;2022-12-31T13:11:29;27.97;;;20.00;;
23370;SDS011;11858;51.056;3.712;2022-12-31T13:19:37;24.25;;;19.92;;
23370;SDS011;11858;51.056;3.712;2022-12-31T13:27:53;25.92;;;20.48;;
23370;SDS011;11858;51.056;3.712;2022-12-31T13:30:26;23.55;;;21.02;;
23370;SDS011;11858;51.056;3.712;2022-12-31T13:32:58;24.02;;;20.42;;
23370;SDS011;11858;51.056;3.712;2022-12-31T13:37:56;29.25;;;20.55;;
23370;SDS011;11858;51.056;3.712;2022-12-31T13:40:43;24.23;;;20.60;;
23370;SDS011;11858;51.056;3.712;2022-12-31T13:43:22;25.45;;;20.65;;
23370;SDS011;11858;51.056;3.712;2022-12-31T13:48:34;24.88;;;20.40;;
23370;SDS011;11858;51.056;3.712;2022-12-31T13:51:30;26.58;;;20.75;;
23370;SDS011;11858;51.056;3.712;2022-12-31T13:56:57;29.08;;;21.25;;
23370;SDS011;11858;51.056;3.712;2022-12-31T13:59:30;29.20;;;21.50;;
23370;SDS011;11858;51.056;3.712;2022-12-31T14:02:02;24.45;;;21.10;;
23370;SDS011;11858;51.056;3.712;2022-12-31T14:04:39;23.90;;;21.40;;
23370;SDS011;11858;51.056;3.712;2022-12-31T14:07:54;24.48;;;20.63;;
23370;SDS011;11858;51.056;3.712;2022-12-31T14:10:00;26.95;;;21.35;;
23370;SDS011;11858;51.056;3.712;2022-12-31T14:13:01;28.70;;;21.92;;
23370;SDS011;11858;51.056;3.712;2022-12-31T14:15:35;27.00;;;21.80;;
23370;SDS011;11858;51.056;3.712;2022-12-31T14:26:26;23.60;;;20.80;;
23370;SDS011;11858;51.056;3.712;2022-12-31T14:29:10;29.55;;;21.73;;
23370;SDS011;11858;51.056;3.712;2022-12-31T14:31:58;23.65;;;21.30;;
23370;SDS011;11858;51.056;3.712;2022-12-31T14:37:43;24.60;;;22.00;;
23370;SDS011;11858;51.056;3.712;2022-12-31T14:43:27;24.35;;;21.85;;
23370;SDS011;11858;51.056;3.712;2022-12-31T14:51:45;25.02;;;22.58;;
23370;SDS011;11858;51.056;3.712;2022-12-31T14:54:23;24.30;;;21.73;;
23370;SDS011;11858;51.056;3.712;2022-12-31T14:57:08;24.60;;;21.98;;
23370;SDS011;11858;51.056;3.712;2022-12-31T14:59:55;24.33;;;21.90;;
23370;SDS011;11858;51.056;3.712;2022-12-31T15:02:26;23.77;;;21.20;;
23370;SDS011;11858;51.056;3.712;2022-12-31T15:07:40;24.02;;;20.95;;
23370;SDS011;11858;51.056;3.712;2022-12-31T15:10:17;23.67;;;21.27;;
23370;SDS011;11858;51.056;3.712;2022-12-31T15:16:17;22.50;;;20.23;;
23370;SDS011;11858;51.056;3.712;2022-12-31T15:24:25;24.90;;;21.85;;
23370;SDS011;11858;51.056;3.712;2022-12-31T15:26:55;23.70;;;21.20;;
23370;SDS011;11858;51.056;3.712;2022-12-31T15:32:14;26.52;;;21.55;;
23370;SDS011;11858;51.056;3.712;2022-12-31T15:34:47;26.00;;;21.80;;
23370;SDS011;11858;51.056;3.712;2022-12-31T15:37:32;24.92;;;21.40;;
23370;SDS011;11858;51.056;3.712;2022-12-31T15:42:46;24.42;;;21.88;;
23370;SDS011;11858;51.056;3.712;2022-12-31T15:45:27;24.00;;;21.85;;
23370;SDS011;11858;51.056;3.712;2022-12-31T15:47:57;24.45;;;21.90;;
23370;SDS011;11858;51.056;3.712;2022-12-31T15:50:26;25.98;;;22.92;;
23370;SDS011;11858;51.056;3.712;2022-12-31T15:52:56;24.42;;;22.10;;
23370;SDS011;11858;51.056;3.712;2022-12-31T15:55:35;22.48;;;20.55;;
23370;SDS011;11858;51.056;3.712;2022-12-31T15:58:17;29.15;;;22.15;;
23370;SDS011;11858;51.056;3.712;2022-12-31T16:00:56;24.42;;;21.92;;
23370;SDS011;11858;51.056;3.712;2022-12-31T16:03:41;24.90;;;22.42;;
23370;SDS011;11858;51.056;3.712;2022-12-31T16:06:11;24.05;;;21.48;;
23370;SDS011;11858;51.056;3.712;2022-12-31T16:08:39;24.25;;;21.77;;
23370;SDS011;11858;51.056;3.712;2022-12-31T16:11:08;24.00;;;21.80;;
23370;SDS011;11858;51.056;3.712;2022-12-31T16:13:36;23.80;;;21.48;;
23370;SDS011;11858;51.056;3.712;2022-12-31T16:16:07;23.95;;;21.52;;
23370;SDS011;11858;51.056;3.712;2022-12-31T16:18:43;23.48;;;21.20;;
23370;SDS011;11858;51.056;3.712;2022-12-31T16:21:44;25.92;;;22.00;;
23370;SDS011;11858;51.056;3.712;2022-12-31T16:24:03;28.65;;;22.27;;
23370;SDS011;11858;51.056;3.712;2022-12-31T16:26:48;23.80;;;21.52;;
23370;SDS011;11858;51.056;3.712;2022-12-31T16:29:18;24.13;;;21.60;;
23370;SDS011;11858;51.056;3.712;2022-12-31T16:31:47;24.33;;;21.73;;
23370;SDS011;11858;51.056;3.712;2022-12-31T16:34:16;23.50;;;21.20;;
23370;SDS011;11858;51.056;3.712;2022-12-31T16:39:32;24.25;;;21.77;;
23370;SDS011;11858;51.056;3.712;2022-12-31T16:44:33;24.90;;;22.20;;
23370;SDS011;11858;51.056;3.712;2022-12-31T16:46:59;25.10;;;21.58;;
23370;SDS011;11858;51.056;3.712;2022-12-31T16:49:28;25.08;;;21.48;;
23370;SDS011;11858;51.056;3.712;2022-12-31T16:51:57;23.33;;;21.13;;
23370;SDS011;11858;51.056;3.712;2022-12-31T16:54:36;23.63;;;21.45;;
23370;SDS011;11858;51.056;3.712;2022-12-31T16:57:03;25.50;;;22.83;;
23370;SDS011;11858;51.056;3.712;2022-12-31T16:59:40;27.17;;;22.58;;
23370;SDS011;11858;51.056;3.712;2022-12-31T17:02:19;28.77;;;26.02;;
23370;SDS011;11858;51.056;3.712;2022-12-31T17:04:50;27.90;;;25.40;;
23370;SDS011;11858;51.056;3.712;2022-12-31T17:07:25;30.20;;;27.45;;
23370;SDS011;11858;51.056;3.712;2022-12-31T17:10:01;28.80;;;25.80;;
23370;SDS011;11858;51.056;3.712;2022-12-31T17:12:30;28.95;;;26.10;;
23370;SDS011;11858;51.056;3.712;2022-12-31T17:15:02;29.08;;;26.30;;
23370;SDS011;11858;51.056;3.712;2022-12-31T17:17:29;29.00;;;26.02;;
23370;SDS011;11858;51.056;3.712;2022-12-31T17:20:00;29.60;;;27.05;;
23370;SDS011;11858;51.056;3.712;2022-12-31T17:22:30;29.77;;;26.70;;
23370;SDS011;11858;51.056;3.712;2022-12-31T17:25:00;29.33;;;26.70;;
23370;SDS011;11858;51.056;3.712;2022-12-31T17:27:31;31.23;;;28.40;;
23370;SDS011;11858;51.056;3.712;2022-12-31T17:30:26;29.20;;;26.73;;
23370;SDS011;11858;51.056;3.712;2022-12-31T17:33:24;31.27;;;28.25;;
23370;SDS011;11858;51.056;3.712;2022-12-31T17:35:55;30.10;;;27.05;;
23370;SDS011;11858;51.056;3.712;2022-12-31T17:38:37;29.20;;;26.45;;
23370;SDS011;11858;51.056;3.712;2022-12-31T17:43:32;30.52;;;27.55;;
23370;SDS011;11858;51.056;3.712;2022-12-31T17:46:00;30.25;;;27.15;;
23370;SDS011;11858;51.056;3.712;2022-12-31T17:48:27;29.77;;;27.27;;
23370;SDS011;11858;51.056;3.712;2022-12-31T17:50:54;30.20;;;27.33;;
23370;SDS011;11858;51.056;3.712;2022-12-31T17:53:21;29.60;;;26.77;;
23370;SDS011;11858;51.056;3.712;2022-12-31T17:55:48;30.50;;;27.55;;
23370;SDS011;11858;51.056;3.712;2022-12-31T17:58:17;29.25;;;26.63;;
23370;SDS011;11858;51.056;3.712;2022-12-31T18:00:44;30.63;;;27.42;;
23370;SDS011;11858;51.056;3.712;2022-12-31T18:03:10;30.40;;;27.20;;
23370;SDS011;11858;51.056;3.712;2022-12-31T18:05:36;28.85;;;26.17;;
23370;SDS011;11858;51.056;3.712;2022-12-31T18:08:02;30.08;;;27.40;;
23370;SDS011;11858;51.056;3.712;2022-12-31T18:10:28;33.22;;;26.98;;
23370;SDS011;11858;51.056;3.712;2022-12-31T18:12:59;29.30;;;26.45;;
23370;SDS011;11858;51.056;3.712;2022-12-31T18:15:28;29.40;;;26.85;;
23370;SDS011;11858;51.056;3.712;2022-12-31T18:17:54;28.75;;;26.27;;
23370;SDS011;11858;51.056;3.712;2022-12-31T18:20:20;29.65;;;26.75;;
23370;SDS011;11858;51.056;3.712;2022-12-31T18:22:47;31.80;;;27.38;;
23370;SDS011;11858;51.056;3.712;2022-12-31T18:25:15;28.05;;;25.33;;
23370;SDS011;11858;51.056;3.712;2022-12-31T18:27:46;29.70;;;27.02;;
23370;SDS011;11858;51.056;3.712;2022-12-31T18:30:13;29.48;;;26.50;;
23370;SDS011;11858;51.056;3.712;2022-12-31T18:32:41;28.15;;;25.33;;
23370;SDS011;11858;51.056;3.712;2022-12-31T18:35:10;28.77;;;26.23;;
23370;SDS011;11858;51.056;3.712;2022-12-31T18:40:04;29.05;;;26.40;;
23370;SDS011;11858;51.056;3.712;2022-12-31T18:42:30;29.15;;;26.05;;
23370;SDS011;11858;51.056;3.712;2022-12-31T18:44:56;28.45;;;25.70;;
23370;SDS011;11858;51.056;3.712;2022-12-31T18:47:22;28.60;;;25.77;;
23370;SDS011;11858;51.056;3.712;2022-12-31T18:49:48;28.88;;;26.05;;
23370;SDS011;11858;51.056;3.712;2022-12-31T18:52:16;32.70;;;25.85;;
23370;SDS011;11858;51.056;3.712;2022-12-31T18:54:44;28.08;;;25.40;;
23370;SDS011;11858;51.056;3.712;2022-12-31T18:57:10;28.75;;;25.88;;
23370;SDS011;11858;51.056;3.712;2022-12-31T18:59:37;28.58;;;25.85;;
23370;SDS011;11858;51.056;3.712;2022-12-31T19:02:03;28.98;;;26.05;;
23370;SDS011;11858;51.056;3.712;2022-12-31T19:04:31;28.13;;;25.60;;
23370;SDS011;11858;51.056;3.712;2022-12-31T19:06:56;28.73;;;26.17;;
23370;SDS011;11858;51.056;3.712;2022-12-31T19:09:22;32.17;;;26.58;;
23370;SDS011;11858;51.056;3.712;2022-12-31T19:11:48;28.35;;;25.85;;
23370;SDS011;11858;51.056;3.712;2022-12-31T19:14:17;29.05;;;26.13;;
23370;SDS011;11858;51.056;3.712;2022-12-31T19:16:48;30.42;;;27.45;;
23370;SDS011;11858;51.056;3.712;2022-12-31T19:19:18;28.95;;;26.00;;
23370;SDS011;11858;51.056;3.712;2022-12-31T19:21:45;28.52;;;25.70;;
23370;SDS011;11858;51.056;3.712;2022-12-31T19:24:12;28.98;;;26.13;;
23370;SDS011;11858;51.056;3.712;2022-12-31T19:26:41;29.00;;;26.00;;